This is the latest recevied weather packets stored in our database for station/object IA5KRO-13. If no packets are shown the sender has not sent any weather packets the latest 10 day(s).
| Time | Temp. | Humidity | Pressure | Rain* | Wind** | Luminosity | Snow |
|---|---|---|---|---|---|---|---|
| 1777441513 | 17.78° C | 59% | 1022 hPa | 0 mm | - | - | - |
| 1777441212 | 17.78° C | 52% | 1022 hPa | 0 mm | - | - | - |
| 1777440908 | 17.78° C | 64% | 1022 hPa | 0 mm | - | - | - |
| 1777440625 | 16.11° C | 51% | 1022 hPa | 0 mm | - | - | - |
| 1777440308 | 16.11° C | 53% | 1022 hPa | 0 mm | - | - | - |
| 1777440013 | 16.11° C | 59% | 1022 hPa | 0 mm | - | - | - |
| 1777439714 | 15° C | 69% | 1022 hPa | 0 mm | - | - | - |
| 1777439413 | 15° C | 70% | 1022.4 hPa | 0 mm | - | - | - |
| 1777439109 | 13.89° C | 57% | 1022.4 hPa | 0 mm | - | - | - |
| 1777438834 | 13.89° C | 54% | 1022 hPa | 0 mm | - | - | - |
| 1777438509 | 15° C | 52% | 1022 hPa | 0 mm | - | - | - |
| 1777438212 | 16.11° C | 68% | 1022 hPa | 0 mm | - | - | - |
| 1777437612 | 15° C | 80% | 1022 hPa | 0 mm | - | - | - |
| 1777437309 | 15° C | 82% | 1022 hPa | 0 mm | - | - | - |
| 1777437025 | 15° C | 77% | 1022 hPa | 0 mm | - | - | - |
| 1777435813 | 12.78° C | 66% | 1022 hPa | 0 mm | - | - | - |
| 1777434313 | 15° C | 84% | 1022 hPa | 0 mm | - | - | - |
| 1777431909 | 15° C | 62% | 1022.4 hPa | 0 mm | - | - | - |
| 1777431309 | 15° C | 73% | 1022.4 hPa | 0 mm | - | - | - |
| 1777431013 | 15° C | 82% | 1022.4 hPa | 0 mm | - | - | - |
| 1777423514 | 12.22° C | 66% | 1022.4 hPa | 0 mm | - | - | - |
| 1777422909 | 12.22° C | 69% | 1022.7 hPa | 0 mm | - | - | - |
| 1777422309 | 12.78° C | 67% | 1022.7 hPa | 0 mm | - | - | - |
| 1777420837 | 12.78° C | 66% | 1022.7 hPa | 0 mm | - | - | - |
* Rain latest hour (hover to see other rain measurements)
** Current wind speed in m/s (hover to see current wind gust speed)